sensor_id;sensor_type;location;lat;lon;timestamp;pressure;altitude;pressure_sealevel;temperature;humidity
74524;BME280;63074;44.696;10.358;2023-03-18T00:02:09;100289.00;;;5.17;100.00
74524;BME280;63074;44.696;10.358;2023-03-18T00:04:35;100287.59;;;4.93;100.00
74524;BME280;63074;44.696;10.358;2023-03-18T00:07:02;100290.34;;;4.79;100.00
74524;BME280;63074;44.696;10.358;2023-03-18T00:09:28;100288.00;;;4.90;100.00
74524;BME280;63074;44.696;10.358;2023-03-18T00:11:54;100286.63;;;5.01;100.00
74524;BME280;63074;44.696;10.358;2023-03-18T00:14:22;100285.22;;;4.56;100.00
74524;BME280;63074;44.696;10.358;2023-03-18T00:16:48;100287.34;;;4.88;100.00
74524;BME280;63074;44.696;10.358;2023-03-18T00:19:15;100281.03;;;4.89;100.00
74524;BME280;63074;44.696;10.358;2023-03-18T00:21:42;100279.84;;;4.98;100.00
74524;BME280;63074;44.696;10.358;2023-03-18T00:24:09;100286.75;;;4.93;100.00
74524;BME280;63074;44.696;10.358;2023-03-18T00:26:36;100284.81;;;4.80;100.00
74524;BME280;63074;44.696;10.358;2023-03-18T00:29:03;100281.88;;;4.96;100.00
74524;BME280;63074;44.696;10.358;2023-03-18T00:31:29;100282.78;;;4.82;100.00
74524;BME280;63074;44.696;10.358;2023-03-18T00:33:55;100286.59;;;4.73;100.00
74524;BME280;63074;44.696;10.358;2023-03-18T00:36:21;100270.59;;;4.94;100.00
74524;BME280;63074;44.696;10.358;2023-03-18T00:38:52;100274.63;;;5.12;100.00
74524;BME280;63074;44.696;10.358;2023-03-18T00:41:25;100275.88;;;5.16;100.00
74524;BME280;63074;44.696;10.358;2023-03-18T00:43:52;100277.69;;;5.43;100.00
74524;BME280;63074;44.696;10.358;2023-03-18T00:46:35;100281.44;;;5.55;100.00
74524;BME280;63074;44.696;10.358;2023-03-18T00:49:05;100266.31;;;5.62;100.00
74524;BME280;63074;44.696;10.358;2023-03-18T00:51:34;100263.84;;;5.61;100.00
74524;BME280;63074;44.696;10.358;2023-03-18T00:54:04;100258.69;;;5.59;100.00
74524;BME280;63074;44.696;10.358;2023-03-18T00:56:33;100262.03;;;5.68;100.00
74524;BME280;63074;44.696;10.358;2023-03-18T00:59:01;100264.06;;;5.66;100.00
74524;BME280;63074;44.696;10.358;2023-03-18T01:01:28;100257.31;;;5.70;100.00
74524;BME280;63074;44.696;10.358;2023-03-18T01:03:54;100257.28;;;5.63;100.00
74524;BME280;63074;44.696;10.358;2023-03-18T01:06:23;100251.75;;;5.65;100.00
74524;BME280;63074;44.696;10.358;2023-03-18T01:08:50;100251.53;;;5.60;100.00
74524;BME280;63074;44.696;10.358;2023-03-18T01:11:17;100253.94;;;5.55;100.00
74524;BME280;63074;44.696;10.358;2023-03-18T01:13:44;100255.84;;;5.26;100.00
74524;BME280;63074;44.696;10.358;2023-03-18T01:16:11;100242.63;;;5.39;100.00
74524;BME280;63074;44.696;10.358;2023-03-18T01:18:38;100233.84;;;5.52;100.00
74524;BME280;63074;44.696;10.358;2023-03-18T01:21:05;100239.38;;;5.51;100.00
74524;BME280;63074;44.696;10.358;2023-03-18T01:23:32;100233.22;;;5.50;100.00
74524;BME280;63074;44.696;10.358;2023-03-18T01:25:58;100227.25;;;5.41;100.00
74524;BME280;63074;44.696;10.358;2023-03-18T01:28:24;100227.09;;;5.56;100.00
74524;BME280;63074;44.696;10.358;2023-03-18T01:30:52;100224.66;;;5.61;100.00
74524;BME280;63074;44.696;10.358;2023-03-18T01:33:19;100216.06;;;5.66;100.00
74524;BME280;63074;44.696;10.358;2023-03-18T01:35:45;100209.50;;;5.62;100.00
74524;BME280;63074;44.696;10.358;2023-03-18T01:38:12;100215.06;;;5.67;100.00
74524;BME280;63074;44.696;10.358;2023-03-18T01:40:39;100205.81;;;5.63;100.00
74524;BME280;63074;44.696;10.358;2023-03-18T01:43:27;100205.16;;;5.54;100.00
74524;BME280;63074;44.696;10.358;2023-03-18T01:45:57;100194.06;;;5.44;100.00
74524;BME280;63074;44.696;10.358;2023-03-18T01:48:30;100190.69;;;5.29;100.00
74524;BME280;63074;44.696;10.358;2023-03-18T01:51:03;100194.78;;;4.90;100.00
74524;BME280;63074;44.696;10.358;2023-03-18T01:53:43;100197.81;;;5.15;100.00
74524;BME280;63074;44.696;10.358;2023-03-18T01:56:11;100197.03;;;5.28;100.00
74524;BME280;63074;44.696;10.358;2023-03-18T01:58:43;100196.84;;;5.29;100.00
74524;BME280;63074;44.696;10.358;2023-03-18T02:01:32;100192.44;;;5.08;100.00
74524;BME280;63074;44.696;10.358;2023-03-18T02:04:00;100197.50;;;4.69;100.00
74524;BME280;63074;44.696;10.358;2023-03-18T02:06:27;100200.06;;;4.84;100.00
74524;BME280;63074;44.696;10.358;2023-03-18T02:08:54;100190.72;;;4.66;100.00
74524;BME280;63074;44.696;10.358;2023-03-18T02:11:22;100191.25;;;4.55;100.00
74524;BME280;63074;44.696;10.358;2023-03-18T02:13:48;100192.16;;;4.69;100.00
74524;BME280;63074;44.696;10.358;2023-03-18T02:16:24;100187.00;;;4.61;100.00
74524;BME280;63074;44.696;10.358;2023-03-18T02:18:59;100184.53;;;4.59;100.00
74524;BME280;63074;44.696;10.358;2023-03-18T02:21:45;100186.13;;;4.54;100.00
74524;BME280;63074;44.696;10.358;2023-03-18T02:27:16;100178.41;;;4.37;100.00
74524;BME280;63074;44.696;10.358;2023-03-18T02:29:43;100187.41;;;4.36;100.00
74524;BME280;63074;44.696;10.358;2023-03-18T02:32:11;100181.06;;;4.37;100.00
74524;BME280;63074;44.696;10.358;2023-03-18T02:34:39;100180.97;;;4.03;100.00
74524;BME280;63074;44.696;10.358;2023-03-18T02:37:07;100178.75;;;4.28;100.00
74524;BME280;63074;44.696;10.358;2023-03-18T02:39:33;100181.44;;;4.34;100.00
74524;BME280;63074;44.696;10.358;2023-03-18T02:42:00;100172.84;;;4.32;100.00
74524;BME280;63074;44.696;10.358;2023-03-18T02:44:27;100175.06;;;4.07;100.00
74524;BME280;63074;44.696;10.358;2023-03-18T02:47:03;100168.81;;;4.15;100.00
74524;BME280;63074;44.696;10.358;2023-03-18T02:49:34;100164.38;;;4.01;100.00
74524;BME280;63074;44.696;10.358;2023-03-18T02:52:00;100167.41;;;4.19;100.00
74524;BME280;63074;44.696;10.358;2023-03-18T02:54:28;100164.19;;;4.24;100.00
74524;BME280;63074;44.696;10.358;2023-03-18T02:56:55;100167.03;;;4.22;100.00
74524;BME280;63074;44.696;10.358;2023-03-18T02:59:22;100167.47;;;4.26;100.00
74524;BME280;63074;44.696;10.358;2023-03-18T03:01:51;100169.84;;;4.42;100.00
74524;BME280;63074;44.696;10.358;2023-03-18T03:04:19;100162.00;;;4.34;100.00
74524;BME280;63074;44.696;10.358;2023-03-18T03:06:46;100170.28;;;4.46;100.00
74524;BME280;63074;44.696;10.358;2023-03-18T03:09:14;100171.16;;;4.25;100.00
74524;BME280;63074;44.696;10.358;2023-03-18T03:11:43;100165.03;;;4.03;100.00
74524;BME280;63074;44.696;10.358;2023-03-18T03:14:09;100170.19;;;4.32;100.00
74524;BME280;63074;44.696;10.358;2023-03-18T03:16:36;100168.41;;;4.39;100.00
74524;BME280;63074;44.696;10.358;2023-03-18T03:19:06;100167.56;;;4.39;100.00
74524;BME280;63074;44.696;10.358;2023-03-18T03:21:33;100172.44;;;4.57;100.00
74524;BME280;63074;44.696;10.358;2023-03-18T03:24:02;100172.06;;;4.60;100.00
74524;BME280;63074;44.696;10.358;2023-03-18T03:26:29;100176.19;;;4.69;100.00
74524;BME280;63074;44.696;10.358;2023-03-18T03:28:56;100175.66;;;4.80;100.00
74524;BME280;63074;44.696;10.358;2023-03-18T03:31:23;100171.16;;;4.81;100.00
74524;BME280;63074;44.696;10.358;2023-03-18T03:33:49;100169.47;;;4.73;100.00
74524;BME280;63074;44.696;10.358;2023-03-18T03:36:16;100172.50;;;4.70;100.00
74524;BME280;63074;44.696;10.358;2023-03-18T03:38:43;100171.41;;;4.86;100.00
74524;BME280;63074;44.696;10.358;2023-03-18T03:41:10;100173.69;;;4.89;100.00
74524;BME280;63074;44.696;10.358;2023-03-18T03:43:38;100173.31;;;4.98;100.00
74524;BME280;63074;44.696;10.358;2023-03-18T03:46:06;100169.00;;;4.97;100.00
74524;BME280;63074;44.696;10.358;2023-03-18T03:48:32;100164.44;;;4.91;100.00
74524;BME280;63074;44.696;10.358;2023-03-18T03:50:58;100162.59;;;4.85;100.00
74524;BME280;63074;44.696;10.358;2023-03-18T03:53:25;100170.91;;;4.75;100.00
74524;BME280;63074;44.696;10.358;2023-03-18T03:55:52;100170.28;;;4.73;100.00
74524;BME280;63074;44.696;10.358;2023-03-18T03:58:20;100161.00;;;4.91;100.00
74524;BME280;63074;44.696;10.358;2023-03-18T04:00:46;100167.81;;;4.72;100.00
74524;BME280;63074;44.696;10.358;2023-03-18T04:03:13;100162.41;;;4.10;100.00
74524;BME280;63074;44.696;10.358;2023-03-18T04:05:39;100158.88;;;4.24;100.00
74524;BME280;63074;44.696;10.358;2023-03-18T04:08:07;100156.22;;;4.02;100.00
74524;BME280;63074;44.696;10.358;2023-03-18T04:10:33;100161.31;;;3.83;100.00
74524;BME280;63074;44.696;10.358;2023-03-18T04:13:02;100170.13;;;3.83;100.00
74524;BME280;63074;44.696;10.358;2023-03-18T04:15:29;100163.22;;;3.89;100.00
74524;BME280;63074;44.696;10.358;2023-03-18T04:17:55;100162.03;;;4.13;100.00
74524;BME280;63074;44.696;10.358;2023-03-18T04:20:21;100154.06;;;3.91;100.00
74524;BME280;63074;44.696;10.358;2023-03-18T04:22:47;100155.50;;;3.94;100.00
74524;BME280;63074;44.696;10.358;2023-03-18T04:25:14;100145.88;;;4.14;100.00
74524;BME280;63074;44.696;10.358;2023-03-18T04:27:41;100157.22;;;4.01;100.00
74524;BME280;63074;44.696;10.358;2023-03-18T04:30:10;100150.50;;;4.05;100.00
74524;BME280;63074;44.696;10.358;2023-03-18T04:32:36;100151.69;;;3.82;100.00
74524;BME280;63074;44.696;10.358;2023-03-18T04:35:03;100143.34;;;3.85;100.00
74524;BME280;63074;44.696;10.358;2023-03-18T04:37:30;100153.22;;;3.69;100.00
74524;BME280;63074;44.696;10.358;2023-03-18T04:39:56;100148.78;;;4.19;100.00
74524;BME280;63074;44.696;10.358;2023-03-18T04:42:24;100149.25;;;4.01;100.00
74524;BME280;63074;44.696;10.358;2023-03-18T04:44:50;100150.25;;;3.79;100.00
74524;BME280;63074;44.696;10.358;2023-03-18T04:47:17;100140.31;;;3.66;100.00
74524;BME280;63074;44.696;10.358;2023-03-18T04:49:43;100137.53;;;3.75;100.00
74524;BME280;63074;44.696;10.358;2023-03-18T04:52:09;100141.22;;;3.73;100.00
74524;BME280;63074;44.696;10.358;2023-03-18T04:54:36;100141.50;;;3.85;100.00
74524;BME280;63074;44.696;10.358;2023-03-18T04:57:05;100140.88;;;3.83;100.00
74524;BME280;63074;44.696;10.358;2023-03-18T04:59:32;100140.75;;;3.91;100.00
74524;BME280;63074;44.696;10.358;2023-03-18T05:01:58;100138.84;;;4.06;100.00
74524;BME280;63074;44.696;10.358;2023-03-18T05:04:25;100145.06;;;4.14;100.00
74524;BME280;63074;44.696;10.358;2023-03-18T05:06:51;100138.91;;;4.13;100.00
74524;BME280;63074;44.696;10.358;2023-03-18T05:09:18;100140.56;;;4.42;100.00
74524;BME280;63074;44.696;10.358;2023-03-18T05:11:44;100141.03;;;4.46;100.00
74524;BME280;63074;44.696;10.358;2023-03-18T05:14:10;100144.44;;;4.39;100.00
74524;BME280;63074;44.696;10.358;2023-03-18T05:16:37;100142.16;;;4.36;100.00
74524;BME280;63074;44.696;10.358;2023-03-18T05:19:03;100142.34;;;4.35;100.00
74524;BME280;63074;44.696;10.358;2023-03-18T05:21:29;100150.41;;;4.41;100.00
74524;BME280;63074;44.696;10.358;2023-03-18T05:23:55;100147.75;;;4.41;100.00
74524;BME280;63074;44.696;10.358;2023-03-18T05:26:22;100151.41;;;4.40;100.00
74524;BME280;63074;44.696;10.358;2023-03-18T05:28:48;100153.78;;;4.07;100.00
74524;BME280;63074;44.696;10.358;2023-03-18T05:31:14;100157.38;;;3.57;100.00
74524;BME280;63074;44.696;10.358;2023-03-18T05:33:40;100152.56;;;4.03;100.00
74524;BME280;63074;44.696;10.358;2023-03-18T05:36:07;100161.06;;;4.20;100.00
74524;BME280;63074;44.696;10.358;2023-03-18T05:38:34;100161.44;;;4.17;100.00
74524;BME280;63074;44.696;10.358;2023-03-18T05:41:00;100164.38;;;4.22;100.00
74524;BME280;63074;44.696;10.358;2023-03-18T05:43:26;100160.41;;;4.39;100.00
74524;BME280;63074;44.696;10.358;2023-03-18T05:45:53;100172.44;;;4.35;100.00
74524;BME280;63074;44.696;10.358;2023-03-18T05:48:20;100175.16;;;4.42;100.00
74524;BME280;63074;44.696;10.358;2023-03-18T05:50:46;100170.03;;;4.40;100.00
74524;BME280;63074;44.696;10.358;2023-03-18T05:53:13;100177.00;;;4.41;100.00
74524;BME280;63074;44.696;10.358;2023-03-18T05:55:41;100169.66;;;4.44;100.00
74524;BME280;63074;44.696;10.358;2023-03-18T05:58:08;100165.91;;;4.59;100.00
74524;BME280;63074;44.696;10.358;2023-03-18T06:00:34;100164.06;;;4.32;100.00
74524;BME280;63074;44.696;10.358;2023-03-18T06:03:02;100169.47;;;4.45;100.00
74524;BME280;63074;44.696;10.358;2023-03-18T06:05:29;100177.56;;;4.58;100.00
74524;BME280;63074;44.696;10.358;2023-03-18T06:07:56;100173.59;;;4.75;100.00
74524;BME280;63074;44.696;10.358;2023-03-18T06:10:23;100172.38;;;4.78;100.00
74524;BME280;63074;44.696;10.358;2023-03-18T06:12:50;100168.31;;;4.82;100.00
74524;BME280;63074;44.696;10.358;2023-03-18T06:15:17;100163.84;;;4.89;100.00
74524;BME280;63074;44.696;10.358;2023-03-18T06:17:44;100159.41;;;5.03;100.00
74524;BME280;63074;44.696;10.358;2023-03-18T06:20:11;100162.69;;;5.05;100.00
74524;BME280;63074;44.696;10.358;2023-03-18T06:22:38;100166.44;;;5.11;100.00
74524;BME280;63074;44.696;10.358;2023-03-18T06:25:05;100164.78;;;5.09;100.00
74524;BME280;63074;44.696;10.358;2023-03-18T06:27:33;100164.81;;;5.16;100.00
74524;BME280;63074;44.696;10.358;2023-03-18T06:30:00;100165.84;;;5.22;100.00
74524;BME280;63074;44.696;10.358;2023-03-18T06:32:29;100174.81;;;5.07;100.00
74524;BME280;63074;44.696;10.358;2023-03-18T06:34:56;100177.59;;;5.34;100.00
74524;BME280;63074;44.696;10.358;2023-03-18T06:37:22;100170.31;;;5.56;100.00
74524;BME280;63074;44.696;10.358;2023-03-18T06:39:49;100176.91;;;5.66;100.00
74524;BME280;63074;44.696;10.358;2023-03-18T06:42:15;100184.13;;;5.72;100.00
74524;BME280;63074;44.696;10.358;2023-03-18T06:44:41;100182.69;;;5.76;100.00
74524;BME280;63074;44.696;10.358;2023-03-18T06:47:11;100185.16;;;5.85;100.00
74524;BME280;63074;44.696;10.358;2023-03-18T06:49:37;100183.59;;;5.97;100.00
74524;BME280;63074;44.696;10.358;2023-03-18T06:52:03;100185.66;;;6.01;100.00
74524;BME280;63074;44.696;10.358;2023-03-18T06:54:29;100184.84;;;6.14;100.00
74524;BME280;63074;44.696;10.358;2023-03-18T06:56:56;100187.13;;;6.30;100.00
74524;BME280;63074;44.696;10.358;2023-03-18T06:59:22;100195.75;;;6.46;100.00
74524;BME280;63074;44.696;10.358;2023-03-18T07:01:48;100200.66;;;6.68;100.00
74524;BME280;63074;44.696;10.358;2023-03-18T07:04:15;100203.13;;;6.76;100.00
74524;BME280;63074;44.696;10.358;2023-03-18T07:06:41;100202.09;;;6.91;100.00
74524;BME280;63074;44.696;10.358;2023-03-18T07:09:07;100201.88;;;7.05;100.00
74524;BME280;63074;44.696;10.358;2023-03-18T07:11:36;100190.94;;;7.20;100.00
74524;BME280;63074;44.696;10.358;2023-03-18T07:14:02;100198.09;;;7.33;100.00
74524;BME280;63074;44.696;10.358;2023-03-18T07:16:28;100204.63;;;7.50;100.00
74524;BME280;63074;44.696;10.358;2023-03-18T07:18:55;100209.28;;;7.68;100.00
74524;BME280;63074;44.696;10.358;2023-03-18T07:21:24;100209.50;;;7.66;100.00
74524;BME280;63074;44.696;10.358;2023-03-18T07:23:50;100213.50;;;7.82;100.00
74524;BME280;63074;44.696;10.358;2023-03-18T07:26:17;100210.63;;;7.84;100.00
74524;BME280;63074;44.696;10.358;2023-03-18T07:28:45;100206.31;;;7.83;100.00
74524;BME280;63074;44.696;10.358;2023-03-18T07:31:11;100203.66;;;8.14;100.00
74524;BME280;63074;44.696;10.358;2023-03-18T07:33:37;100200.16;;;8.13;100.00
74524;BME280;63074;44.696;10.358;2023-03-18T07:36:04;100212.72;;;8.13;100.00
74524;BME280;63074;44.696;10.358;2023-03-18T07:38:30;100215.97;;;8.22;100.00
74524;BME280;63074;44.696;10.358;2023-03-18T07:40:56;100215.72;;;8.36;95.93
74524;BME280;63074;44.696;10.358;2023-03-18T07:43:23;100218.44;;;8.23;95.28
74524;BME280;63074;44.696;10.358;2023-03-18T07:45:49;100227.47;;;8.35;95.02
74524;BME280;63074;44.696;10.358;2023-03-18T07:48:15;100229.00;;;8.50;96.49
74524;BME280;63074;44.696;10.358;2023-03-18T07:50:41;100237.69;;;8.45;94.36
74524;BME280;63074;44.696;10.358;2023-03-18T07:53:07;100239.50;;;8.51;93.16
74524;BME280;63074;44.696;10.358;2023-03-18T07:55:34;100238.06;;;8.49;93.58
74524;BME280;63074;44.696;10.358;2023-03-18T07:58:00;100244.06;;;8.44;96.25
74524;BME280;63074;44.696;10.358;2023-03-18T08:00:27;100242.81;;;8.46;96.39
74524;BME280;63074;44.696;10.358;2023-03-18T08:02:54;100248.56;;;8.50;90.80
74524;BME280;63074;44.696;10.358;2023-03-18T08:05:20;100248.78;;;8.49;86.09
74524;BME280;63074;44.696;10.358;2023-03-18T08:07:47;100248.97;;;8.54;96.54
74524;BME280;63074;44.696;10.358;2023-03-18T08:10:13;100253.00;;;8.31;91.90
74524;BME280;63074;44.696;10.358;2023-03-18T08:12:41;100247.63;;;8.31;90.42
74524;BME280;63074;44.696;10.358;2023-03-18T08:15:07;100244.06;;;8.44;91.51
74524;BME280;63074;44.696;10.358;2023-03-18T08:17:34;100247.91;;;8.55;96.03
74524;BME280;63074;44.696;10.358;2023-03-18T08:20:00;100242.38;;;8.50;92.79
74524;BME280;63074;44.696;10.358;2023-03-18T08:22:26;100240.59;;;8.68;89.57
74524;BME280;63074;44.696;10.358;2023-03-18T08:24:53;100240.44;;;8.63;90.48
74524;BME280;63074;44.696;10.358;2023-03-18T08:27:20;100244.03;;;8.75;94.94
74524;BME280;63074;44.696;10.358;2023-03-18T08:29:46;100244.16;;;8.62;89.95
74524;BME280;63074;44.696;10.358;2023-03-18T08:32:12;100239.13;;;8.72;91.65
74524;BME280;63074;44.696;10.358;2023-03-18T08:34:38;100245.47;;;8.78;90.72
74524;BME280;63074;44.696;10.358;2023-03-18T08:37:05;100243.19;;;8.82;94.37
74524;BME280;63074;44.696;10.358;2023-03-18T08:39:33;100242.53;;;8.86;94.85
74524;BME280;63074;44.696;10.358;2023-03-18T08:42:01;100249.97;;;8.84;92.27
74524;BME280;63074;44.696;10.358;2023-03-18T08:44:29;100250.59;;;9.04;89.79
74524;BME280;63074;44.696;10.358;2023-03-18T08:46:55;100249.38;;;9.00;92.73
74524;BME280;63074;44.696;10.358;2023-03-18T08:49:23;100253.22;;;9.29;91.81
74524;BME280;63074;44.696;10.358;2023-03-18T08:51:50;100245.50;;;9.39;91.01
74524;BME280;63074;44.696;10.358;2023-03-18T08:54:17;100249.81;;;9.22;94.19
74524;BME280;63074;44.696;10.358;2023-03-18T08:56:43;100250.03;;;9.21;94.49
74524;BME280;63074;44.696;10.358;2023-03-18T08:59:09;100249.16;;;9.45;93.69
74524;BME280;63074;44.696;10.358;2023-03-18T09:01:36;100244.47;;;9.40;93.26
74524;BME280;63074;44.696;10.358;2023-03-18T09:04:03;100245.88;;;9.61;92.75
74524;BME280;63074;44.696;10.358;2023-03-18T09:06:29;100241.28;;;9.50;94.20
74524;BME280;63074;44.696;10.358;2023-03-18T09:08:55;100250.25;;;9.56;90.97
74524;BME280;63074;44.696;10.358;2023-03-18T09:11:23;100248.28;;;9.51;92.45
74524;BME280;63074;44.696;10.358;2023-03-18T09:13:49;100243.09;;;9.86;91.97
74524;BME280;63074;44.696;10.358;2023-03-18T09:16:15;100250.75;;;10.19;89.87
74524;BME280;63074;44.696;10.358;2023-03-18T09:18:43;100240.03;;;10.31;88.93
74524;BME280;63074;44.696;10.358;2023-03-18T09:21:09;100249.88;;;10.19;87.15
74524;BME280;63074;44.696;10.358;2023-03-18T09:23:35;100247.53;;;10.40;87.87
74524;BME280;63074;44.696;10.358;2023-03-18T09:26:01;100248.84;;;10.38;85.87
74524;BME280;63074;44.696;10.358;2023-03-18T09:28:28;100252.34;;;10.50;85.41
74524;BME280;63074;44.696;10.358;2023-03-18T09:30:55;100248.34;;;10.41;83.30
74524;BME280;63074;44.696;10.358;2023-03-18T09:33:22;100246.66;;;10.58;84.59
74524;BME280;63074;44.696;10.358;2023-03-18T09:35:50;100241.94;;;10.42;86.46
74524;BME280;63074;44.696;10.358;2023-03-18T09:38:18;100243.25;;;10.51;87.17
74524;BME280;63074;44.696;10.358;2023-03-18T09:46:34;100244.09;;;10.63;87.18
74524;BME280;63074;44.696;10.358;2023-03-18T09:54:36;100239.38;;;11.75;78.92
74524;BME280;63074;44.696;10.358;2023-03-18T10:00:21;100233.59;;;11.32;80.42
74524;BME280;63074;44.696;10.358;2023-03-18T10:06:04;100224.50;;;11.73;77.30
74524;BME280;63074;44.696;10.358;2023-03-18T10:08:43;100231.78;;;11.61;74.22
74524;BME280;63074;44.696;10.358;2023-03-18T10:11:41;100226.06;;;11.80;71.82
74524;BME280;63074;44.696;10.358;2023-03-18T10:17:07;100219.13;;;11.73;77.05
74524;BME280;63074;44.696;10.358;2023-03-18T10:19:41;100219.28;;;12.06;76.45
74524;BME280;63074;44.696;10.358;2023-03-18T10:22:13;100222.59;;;12.42;74.73
74524;BME280;63074;44.696;10.358;2023-03-18T10:25:01;100231.25;;;11.99;75.11
74524;BME280;63074;44.696;10.358;2023-03-18T10:30:46;100239.38;;;12.61;72.91
74524;BME280;63074;44.696;10.358;2023-03-18T10:36:04;100226.09;;;12.42;72.30
74524;BME280;63074;44.696;10.358;2023-03-18T10:38:37;100226.44;;;12.46;73.48
74524;BME280;63074;44.696;10.358;2023-03-18T10:41:21;100232.59;;;12.58;73.84
74524;BME280;63074;44.696;10.358;2023-03-18T10:43:51;100225.41;;;12.80;71.97
74524;BME280;63074;44.696;10.358;2023-03-18T10:46:19;100230.38;;;13.05;70.51
74524;BME280;63074;44.696;10.358;2023-03-18T10:48:57;100220.34;;;12.84;67.37
74524;BME280;63074;44.696;10.358;2023-03-18T10:51:45;100219.06;;;13.85;67.88
74524;BME280;63074;44.696;10.358;2023-03-18T10:54:39;100226.63;;;13.89;64.02
74524;BME280;63074;44.696;10.358;2023-03-18T10:57:09;100222.16;;;13.99;66.57
74524;BME280;63074;44.696;10.358;2023-03-18T10:59:37;100220.50;;;14.20;64.15
74524;BME280;63074;44.696;10.358;2023-03-18T11:02:29;100212.91;;;14.44;64.21
74524;BME280;63074;44.696;10.358;2023-03-18T11:05:25;100216.88;;;14.36;64.89
74524;BME280;63074;44.696;10.358;2023-03-18T11:10:25;100220.00;;;14.82;61.15
74524;BME280;63074;44.696;10.358;2023-03-18T11:13:00;100208.47;;;14.60;61.03
74524;BME280;63074;44.696;10.358;2023-03-18T11:15:36;100209.44;;;14.80;60.28
74524;BME280;63074;44.696;10.358;2023-03-18T11:18:04;100207.19;;;15.09;58.66
74524;BME280;63074;44.696;10.358;2023-03-18T11:20:34;100210.03;;;15.35;59.45
74524;BME280;63074;44.696;10.358;2023-03-18T11:23:36;100208.09;;;15.72;59.63
74524;BME280;63074;44.696;10.358;2023-03-18T11:26:20;100209.72;;;15.73;58.01
74524;BME280;63074;44.696;10.358;2023-03-18T11:28:46;100209.84;;;16.14;57.48
74524;BME280;63074;44.696;10.358;2023-03-18T11:31:16;100204.47;;;16.39;57.28
74524;BME280;63074;44.696;10.358;2023-03-18T11:33:43;100203.63;;;16.54;57.17
74524;BME280;63074;44.696;10.358;2023-03-18T11:36:16;100201.78;;;16.70;55.19
74524;BME280;63074;44.696;10.358;2023-03-18T11:39:05;100198.81;;;16.71;55.37
74524;BME280;63074;44.696;10.358;2023-03-18T11:41:32;100195.53;;;16.90;53.94
74524;BME280;63074;44.696;10.358;2023-03-18T11:44:06;100196.34;;;17.00;54.73
74524;BME280;63074;44.696;10.358;2023-03-18T11:49:23;100189.06;;;17.70;52.00
74524;BME280;63074;44.696;10.358;2023-03-18T12:00:36;100172.19;;;17.73;51.55
74524;BME280;63074;44.696;10.358;2023-03-18T12:08:38;100149.97;;;18.78;47.01
74524;BME280;63074;44.696;10.358;2023-03-18T12:11:30;100161.75;;;19.69;46.20
74524;BME280;63074;44.696;10.358;2023-03-18T12:25:00;100146.72;;;20.47;42.77
74524;BME280;63074;44.696;10.358;2023-03-18T12:27:36;100146.53;;;21.17;42.78
74524;BME280;63074;44.696;10.358;2023-03-18T12:30:15;100141.09;;;22.08;42.06
74524;BME280;63074;44.696;10.358;2023-03-18T12:32:56;100141.06;;;22.52;40.79
74524;BME280;63074;44.696;10.358;2023-03-18T12:41:17;100128.47;;;23.44;38.71
74524;BME280;63074;44.696;10.358;2023-03-18T12:46:57;100111.69;;;23.46;37.62
74524;BME280;63074;44.696;10.358;2023-03-18T12:49:46;100115.53;;;22.12;36.55
74524;BME280;63074;44.696;10.358;2023-03-18T12:55:09;100114.59;;;24.79;35.35
74524;BME280;63074;44.696;10.358;2023-03-18T12:58:20;100120.72;;;25.22;34.05
74524;BME280;63074;44.696;10.358;2023-03-18T13:00:36;100115.56;;;25.50;32.83
74524;BME280;63074;44.696;10.358;2023-03-18T13:05:43;100112.63;;;26.18;31.70
74524;BME280;63074;44.696;10.358;2023-03-18T13:08:35;100098.53;;;26.19;31.80
74524;BME280;63074;44.696;10.358;2023-03-18T13:11:09;100105.56;;;25.96;32.04
74524;BME280;63074;44.696;10.358;2023-03-18T13:13:41;100100.78;;;24.49;32.77
74524;BME280;63074;44.696;10.358;2023-03-18T13:16:09;100102.63;;;24.75;33.85
74524;BME280;63074;44.696;10.358;2023-03-18T13:18:47;100099.25;;;25.16;33.80
74524;BME280;63074;44.696;10.358;2023-03-18T13:21:19;100100.13;;;25.58;32.69
74524;BME280;63074;44.696;10.358;2023-03-18T13:24:03;100082.78;;;24.61;33.68
74524;BME280;63074;44.696;10.358;2023-03-18T13:29:33;100086.91;;;24.20;33.71
74524;BME280;63074;44.696;10.358;2023-03-18T13:32:33;100090.75;;;24.91;33.06
74524;BME280;63074;44.696;10.358;2023-03-18T13:37:49;100092.69;;;24.91;33.20
74524;BME280;63074;44.696;10.358;2023-03-18T13:40:30;100093.56;;;26.34;30.63
74524;BME280;63074;44.696;10.358;2023-03-18T13:43:00;100084.81;;;26.32;31.17
74524;BME280;63074;44.696;10.358;2023-03-18T13:45:31;100086.44;;;26.78;30.88
74524;BME280;63074;44.696;10.358;2023-03-18T13:48:09;100088.28;;;26.41;31.56
74524;BME280;63074;44.696;10.358;2023-03-18T13:50:42;100094.03;;;27.42;30.41
74524;BME280;63074;44.696;10.358;2023-03-18T13:53:26;100087.69;;;25.81;31.97
74524;BME280;63074;44.696;10.358;2023-03-18T13:58:42;100092.56;;;25.76;30.36
74524;BME280;63074;44.696;10.358;2023-03-18T14:01:25;100088.84;;;26.34;30.54
74524;BME280;63074;44.696;10.358;2023-03-18T14:03:58;100088.72;;;26.10;29.73
74524;BME280;63074;44.696;10.358;2023-03-18T14:09:31;100074.13;;;24.97;32.06
74524;BME280;63074;44.696;10.358;2023-03-18T14:17:40;100067.63;;;25.31;30.44
74524;BME280;63074;44.696;10.358;2023-03-18T14:20:19;100079.38;;;24.64;31.84
74524;BME280;63074;44.696;10.358;2023-03-18T14:22:51;100080.28;;;25.23;31.15
74524;BME280;63074;44.696;10.358;2023-03-18T14:27:50;100080.91;;;25.79;30.13